sensor_id;sensor_type;location;lat;lon;timestamp;temperature;humidity
6407;DHT22;3236;51.022;6.818;2023-04-15T00:00:57;5.20;99.90
6407;DHT22;3236;51.022;6.818;2023-04-15T00:03:24;5.00;99.90
6407;DHT22;3236;51.022;6.818;2023-04-15T00:05:51;4.80;99.90
6407;DHT22;3236;51.022;6.818;2023-04-15T00:08:18;4.90;99.90
6407;DHT22;3236;51.022;6.818;2023-04-15T00:10:45;4.80;99.90
6407;DHT22;3236;51.022;6.818;2023-04-15T00:13:13;4.80;99.90
6407;DHT22;3236;51.022;6.818;2023-04-15T00:15:41;4.70;99.90
6407;DHT22;3236;51.022;6.818;2023-04-15T00:18:08;5.00;99.90
6407;DHT22;3236;51.022;6.818;2023-04-15T00:20:38;5.50;99.90
6407;DHT22;3236;51.022;6.818;2023-04-15T00:23:05;5.50;99.90
6407;DHT22;3236;51.022;6.818;2023-04-15T00:25:32;5.60;99.90
6407;DHT22;3236;51.022;6.818;2023-04-15T00:27:59;5.60;99.90
6407;DHT22;3236;51.022;6.818;2023-04-15T00:30:27;5.40;99.90
6407;DHT22;3236;51.022;6.818;2023-04-15T00:32:57;5.30;99.90
6407;DHT22;3236;51.022;6.818;2023-04-15T00:35:24;5.20;99.90
6407;DHT22;3236;51.022;6.818;2023-04-15T00:37:51;5.00;99.90
6407;DHT22;3236;51.022;6.818;2023-04-15T00:40:19;4.90;99.90
6407;DHT22;3236;51.022;6.818;2023-04-15T00:42:49;4.70;99.90
6407;DHT22;3236;51.022;6.818;2023-04-15T00:45:16;4.90;99.90
6407;DHT22;3236;51.022;6.818;2023-04-15T00:47:44;5.10;99.90
6407;DHT22;3236;51.022;6.818;2023-04-15T00:50:14;5.40;99.90
6407;DHT22;3236;51.022;6.818;2023-04-15T00:52:41;5.10;99.90
6407;DHT22;3236;51.022;6.818;2023-04-15T00:55:08;5.00;99.90
6407;DHT22;3236;51.022;6.818;2023-04-15T00:57:38;4.70;99.90
6407;DHT22;3236;51.022;6.818;2023-04-15T01:00:07;4.80;99.90
6407;DHT22;3236;51.022;6.818;2023-04-15T01:02:36;4.90;99.90
6407;DHT22;3236;51.022;6.818;2023-04-15T01:05:08;4.70;99.90
6407;DHT22;3236;51.022;6.818;2023-04-15T01:07:35;4.90;99.90
6407;DHT22;3236;51.022;6.818;2023-04-15T01:10:03;4.70;99.90
6407;DHT22;3236;51.022;6.818;2023-04-15T01:12:31;4.70;99.90
6407;DHT22;3236;51.022;6.818;2023-04-15T01:14:59;4.70;99.90
6407;DHT22;3236;51.022;6.818;2023-04-15T01:17:26;4.50;99.90
6407;DHT22;3236;51.022;6.818;2023-04-15T01:19:55;4.50;99.90
6407;DHT22;3236;51.022;6.818;2023-04-15T01:22:23;4.30;99.90
6407;DHT22;3236;51.022;6.818;2023-04-15T01:24:55;4.20;99.90
6407;DHT22;3236;51.022;6.818;2023-04-15T01:27:24;4.00;99.90
6407;DHT22;3236;51.022;6.818;2023-04-15T01:29:51;3.90;99.90
6407;DHT22;3236;51.022;6.818;2023-04-15T01:32:21;3.90;99.90
6407;DHT22;3236;51.022;6.818;2023-04-15T01:34:48;4.00;99.90
6407;DHT22;3236;51.022;6.818;2023-04-15T01:37:15;4.40;99.90
6407;DHT22;3236;51.022;6.818;2023-04-15T01:39:42;3.90;99.90
6407;DHT22;3236;51.022;6.818;2023-04-15T01:42:12;3.80;99.90
6407;DHT22;3236;51.022;6.818;2023-04-15T01:44:40;3.70;99.90
6407;DHT22;3236;51.022;6.818;2023-04-15T01:47:07;3.70;99.90
6407;DHT22;3236;51.022;6.818;2023-04-15T01:49:34;3.70;99.90
6407;DHT22;3236;51.022;6.818;2023-04-15T01:52:02;3.70;99.90
6407;DHT22;3236;51.022;6.818;2023-04-15T01:54:28;3.90;99.90
6407;DHT22;3236;51.022;6.818;2023-04-15T01:56:55;4.00;99.90
6407;DHT22;3236;51.022;6.818;2023-04-15T01:59:25;4.10;99.90
6407;DHT22;3236;51.022;6.818;2023-04-15T02:01:53;4.20;99.90
6407;DHT22;3236;51.022;6.818;2023-04-15T02:04:30;4.00;99.90
6407;DHT22;3236;51.022;6.818;2023-04-15T02:10:20;4.00;99.90
6407;DHT22;3236;51.022;6.818;2023-04-15T02:12:47;3.90;99.90
6407;DHT22;3236;51.022;6.818;2023-04-15T02:15:13;3.70;99.90
6407;DHT22;3236;51.022;6.818;2023-04-15T02:17:42;3.60;99.90
6407;DHT22;3236;51.022;6.818;2023-04-15T02:20:11;3.50;99.90
6407;DHT22;3236;51.022;6.818;2023-04-15T02:22:37;3.40;99.90
6407;DHT22;3236;51.022;6.818;2023-04-15T02:25:06;3.70;99.90
6407;DHT22;3236;51.022;6.818;2023-04-15T02:27:33;3.60;99.90
6407;DHT22;3236;51.022;6.818;2023-04-15T02:30:02;3.50;99.90
6407;DHT22;3236;51.022;6.818;2023-04-15T02:32:29;3.40;99.90
6407;DHT22;3236;51.022;6.818;2023-04-15T02:35:01;3.30;99.90
6407;DHT22;3236;51.022;6.818;2023-04-15T02:37:30;3.60;99.90
6407;DHT22;3236;51.022;6.818;2023-04-15T02:40:00;4.00;99.90
6407;DHT22;3236;51.022;6.818;2023-04-15T02:42:27;3.70;99.90
6407;DHT22;3236;51.022;6.818;2023-04-15T02:44:55;3.90;99.90
6407;DHT22;3236;51.022;6.818;2023-04-15T02:47:22;3.90;99.90
6407;DHT22;3236;51.022;6.818;2023-04-15T02:49:49;4.20;99.90
6407;DHT22;3236;51.022;6.818;2023-04-15T02:52:18;4.00;99.90
6407;DHT22;3236;51.022;6.818;2023-04-15T02:54:48;4.00;99.90
6407;DHT22;3236;51.022;6.818;2023-04-15T02:57:15;3.60;99.90
6407;DHT22;3236;51.022;6.818;2023-04-15T02:59:42;3.90;99.90
6407;DHT22;3236;51.022;6.818;2023-04-15T03:02:08;3.90;99.90
6407;DHT22;3236;51.022;6.818;2023-04-15T03:04:36;3.90;99.90
6407;DHT22;3236;51.022;6.818;2023-04-15T03:07:03;3.70;99.90
6407;DHT22;3236;51.022;6.818;2023-04-15T03:09:31;3.50;99.90
6407;DHT22;3236;51.022;6.818;2023-04-15T03:11:58;3.70;99.90
6407;DHT22;3236;51.022;6.818;2023-04-15T03:14:25;3.40;99.90
6407;DHT22;3236;51.022;6.818;2023-04-15T03:16:52;3.30;99.90
6407;DHT22;3236;51.022;6.818;2023-04-15T03:19:19;3.20;99.90
6407;DHT22;3236;51.022;6.818;2023-04-15T03:21:46;2.90;99.90
6407;DHT22;3236;51.022;6.818;2023-04-15T03:24:13;3.10;99.90
6407;DHT22;3236;51.022;6.818;2023-04-15T03:26:42;3.20;99.90
6407;DHT22;3236;51.022;6.818;2023-04-15T03:29:14;3.10;99.90
6407;DHT22;3236;51.022;6.818;2023-04-15T03:31:41;3.00;99.90
6407;DHT22;3236;51.022;6.818;2023-04-15T03:34:08;2.80;99.90
6407;DHT22;3236;51.022;6.818;2023-04-15T03:36:36;3.30;99.90
6407;DHT22;3236;51.022;6.818;2023-04-15T03:39:05;3.10;99.90
6407;DHT22;3236;51.022;6.818;2023-04-15T03:41:32;3.10;99.90
6407;DHT22;3236;51.022;6.818;2023-04-15T03:44:00;3.00;99.90
6407;DHT22;3236;51.022;6.818;2023-04-15T03:46:27;3.00;99.90
6407;DHT22;3236;51.022;6.818;2023-04-15T03:48:54;3.10;99.90
6407;DHT22;3236;51.022;6.818;2023-04-15T03:51:21;3.10;99.90
6407;DHT22;3236;51.022;6.818;2023-04-15T03:53:48;3.20;99.90
6407;DHT22;3236;51.022;6.818;2023-04-15T03:56:18;3.40;99.90
6407;DHT22;3236;51.022;6.818;2023-04-15T03:58:45;3.30;99.90
6407;DHT22;3236;51.022;6.818;2023-04-15T04:01:13;3.20;99.90
6407;DHT22;3236;51.022;6.818;2023-04-15T04:03:41;3.20;99.90
6407;DHT22;3236;51.022;6.818;2023-04-15T04:06:15;2.80;99.90
6407;DHT22;3236;51.022;6.818;2023-04-15T04:08:42;3.10;99.90
6407;DHT22;3236;51.022;6.818;2023-04-15T04:11:12;3.10;99.90
6407;DHT22;3236;51.022;6.818;2023-04-15T04:13:39;3.30;99.90
6407;DHT22;3236;51.022;6.818;2023-04-15T04:16:06;3.20;99.90
6407;DHT22;3236;51.022;6.818;2023-04-15T04:18:34;3.00;99.90
6407;DHT22;3236;51.022;6.818;2023-04-15T04:21:01;3.20;99.90
6407;DHT22;3236;51.022;6.818;2023-04-15T04:23:28;3.00;99.90
6407;DHT22;3236;51.022;6.818;2023-04-15T04:25:55;3.10;99.90
6407;DHT22;3236;51.022;6.818;2023-04-15T04:28:22;2.80;99.90
6407;DHT22;3236;51.022;6.818;2023-04-15T04:30:49;2.90;99.90
6407;DHT22;3236;51.022;6.818;2023-04-15T04:33:16;2.70;99.90
6407;DHT22;3236;51.022;6.818;2023-04-15T04:35:45;3.00;99.90
6407;DHT22;3236;51.022;6.818;2023-04-15T04:38:18;2.90;99.90
6407;DHT22;3236;51.022;6.818;2023-04-15T04:40:45;2.90;99.90
6407;DHT22;3236;51.022;6.818;2023-04-15T04:43:12;2.90;99.90
6407;DHT22;3236;51.022;6.818;2023-04-15T04:45:39;3.10;99.90
6407;DHT22;3236;51.022;6.818;2023-04-15T04:48:06;3.10;99.90
6407;DHT22;3236;51.022;6.818;2023-04-15T04:50:35;3.00;99.90
6407;DHT22;3236;51.022;6.818;2023-04-15T04:53:03;3.00;99.90
6407;DHT22;3236;51.022;6.818;2023-04-15T04:55:30;3.00;99.90
6407;DHT22;3236;51.022;6.818;2023-04-15T04:57:57;3.00;99.90
6407;DHT22;3236;51.022;6.818;2023-04-15T05:00:24;3.00;99.90
6407;DHT22;3236;51.022;6.818;2023-04-15T05:02:55;2.90;99.90
6407;DHT22;3236;51.022;6.818;2023-04-15T05:05:23;2.90;99.90
6407;DHT22;3236;51.022;6.818;2023-04-15T05:07:50;3.10;99.90
6407;DHT22;3236;51.022;6.818;2023-04-15T05:10:18;2.80;99.90
6407;DHT22;3236;51.022;6.818;2023-04-15T05:12:45;2.60;99.90
6407;DHT22;3236;51.022;6.818;2023-04-15T05:15:12;2.80;99.90
6407;DHT22;3236;51.022;6.818;2023-04-15T05:17:39;2.80;99.90
6407;DHT22;3236;51.022;6.818;2023-04-15T05:20:09;2.90;99.90
6407;DHT22;3236;51.022;6.818;2023-04-15T05:22:37;2.90;99.90
6407;DHT22;3236;51.022;6.818;2023-04-15T05:25:04;3.10;99.90
6407;DHT22;3236;51.022;6.818;2023-04-15T05:27:34;2.90;99.90
6407;DHT22;3236;51.022;6.818;2023-04-15T05:30:01;3.30;99.90
6407;DHT22;3236;51.022;6.818;2023-04-15T05:32:28;3.10;99.90
6407;DHT22;3236;51.022;6.818;2023-04-15T05:34:55;3.20;99.90
6407;DHT22;3236;51.022;6.818;2023-04-15T05:37:22;3.20;99.90
6407;DHT22;3236;51.022;6.818;2023-04-15T05:39:49;3.30;99.90
6407;DHT22;3236;51.022;6.818;2023-04-15T05:42:16;3.40;99.90
6407;DHT22;3236;51.022;6.818;2023-04-15T05:44:46;3.80;99.90
6407;DHT22;3236;51.022;6.818;2023-04-15T05:47:14;4.00;99.90
6407;DHT22;3236;51.022;6.818;2023-04-15T05:49:42;4.10;99.90
6407;DHT22;3236;51.022;6.818;2023-04-15T05:52:09;3.90;99.90
6407;DHT22;3236;51.022;6.818;2023-04-15T05:54:36;4.00;99.90
6407;DHT22;3236;51.022;6.818;2023-04-15T05:57:03;4.10;99.90
6407;DHT22;3236;51.022;6.818;2023-04-15T05:59:30;4.20;99.90
6407;DHT22;3236;51.022;6.818;2023-04-15T06:01:58;4.60;99.90
6407;DHT22;3236;51.022;6.818;2023-04-15T06:06:56;4.90;99.90
6407;DHT22;3236;51.022;6.818;2023-04-15T06:09:23;5.00;99.90
6407;DHT22;3236;51.022;6.818;2023-04-15T06:11:50;4.80;99.90
6407;DHT22;3236;51.022;6.818;2023-04-15T06:14:20;4.90;99.90
6407;DHT22;3236;51.022;6.818;2023-04-15T06:16:47;5.10;99.90
6407;DHT22;3236;51.022;6.818;2023-04-15T06:19:16;5.20;99.90
6407;DHT22;3236;51.022;6.818;2023-04-15T06:21:43;5.30;99.90
6407;DHT22;3236;51.022;6.818;2023-04-15T06:24:15;5.10;99.90
6407;DHT22;3236;51.022;6.818;2023-04-15T06:26:42;5.60;99.90
6407;DHT22;3236;51.022;6.818;2023-04-15T06:29:12;5.90;99.90
6407;DHT22;3236;51.022;6.818;2023-04-15T06:31:39;6.60;99.90
6407;DHT22;3236;51.022;6.818;2023-04-15T06:34:09;6.00;99.90
6407;DHT22;3236;51.022;6.818;2023-04-15T06:36:41;7.00;99.90
6407;DHT22;3236;51.022;6.818;2023-04-15T06:41:41;7.10;99.90
6407;DHT22;3236;51.022;6.818;2023-04-15T06:44:10;7.10;99.90
6407;DHT22;3236;51.022;6.818;2023-04-15T06:46:37;7.00;99.90
6407;DHT22;3236;51.022;6.818;2023-04-15T06:49:04;7.30;99.90
6407;DHT22;3236;51.022;6.818;2023-04-15T06:51:33;7.50;99.90
6407;DHT22;3236;51.022;6.818;2023-04-15T06:54:01;8.10;99.90
6407;DHT22;3236;51.022;6.818;2023-04-15T06:56:33;8.20;99.90
6407;DHT22;3236;51.022;6.818;2023-04-15T06:59:00;8.20;99.90
6407;DHT22;3236;51.022;6.818;2023-04-15T07:01:28;8.50;99.90
6407;DHT22;3236;51.022;6.818;2023-04-15T07:03:55;8.40;99.90
6407;DHT22;3236;51.022;6.818;2023-04-15T07:06:23;8.60;99.90
6407;DHT22;3236;51.022;6.818;2023-04-15T07:08:50;8.80;99.90
6407;DHT22;3236;51.022;6.818;2023-04-15T07:11:18;9.00;99.90
6407;DHT22;3236;51.022;6.818;2023-04-15T07:13:46;9.20;99.90
6407;DHT22;3236;51.022;6.818;2023-04-15T07:16:13;9.30;99.90
6407;DHT22;3236;51.022;6.818;2023-04-15T07:18:40;9.50;99.90
6407;DHT22;3236;51.022;6.818;2023-04-15T07:21:08;9.70;99.90
6407;DHT22;3236;51.022;6.818;2023-04-15T07:23:42;9.80;99.90
6407;DHT22;3236;51.022;6.818;2023-04-15T07:26:09;10.00;99.90
6407;DHT22;3236;51.022;6.818;2023-04-15T07:28:38;10.30;99.90
6407;DHT22;3236;51.022;6.818;2023-04-15T07:31:05;10.40;99.90
6407;DHT22;3236;51.022;6.818;2023-04-15T07:33:32;10.80;99.90
6407;DHT22;3236;51.022;6.818;2023-04-15T07:35:59;10.90;99.90
6407;DHT22;3236;51.022;6.818;2023-04-15T07:38:26;11.10;99.90
6407;DHT22;3236;51.022;6.818;2023-04-15T07:40:53;11.30;99.90
6407;DHT22;3236;51.022;6.818;2023-04-15T07:43:21;11.50;99.90
6407;DHT22;3236;51.022;6.818;2023-04-15T07:45:49;12.10;99.90
6407;DHT22;3236;51.022;6.818;2023-04-15T07:48:16;11.90;99.90
6407;DHT22;3236;51.022;6.818;2023-04-15T07:50:44;11.80;99.90
6407;DHT22;3236;51.022;6.818;2023-04-15T07:53:11;11.90;99.90
6407;DHT22;3236;51.022;6.818;2023-04-15T07:55:48;12.20;99.90
6407;DHT22;3236;51.022;6.818;2023-04-15T07:58:15;13.00;99.90
6407;DHT22;3236;51.022;6.818;2023-04-15T08:00:42;12.80;99.90
6407;DHT22;3236;51.022;6.818;2023-04-15T08:03:10;12.90;99.90
6407;DHT22;3236;51.022;6.818;2023-04-15T08:05:37;13.20;99.90
6407;DHT22;3236;51.022;6.818;2023-04-15T08:08:07;13.10;99.90
6407;DHT22;3236;51.022;6.818;2023-04-15T08:10:34;12.90;99.90
6407;DHT22;3236;51.022;6.818;2023-04-15T08:13:01;12.60;99.90
6407;DHT22;3236;51.022;6.818;2023-04-15T08:15:28;12.80;99.90
6407;DHT22;3236;51.022;6.818;2023-04-15T08:17:57;12.20;99.90
6407;DHT22;3236;51.022;6.818;2023-04-15T08:20:27;12.70;99.90
6407;DHT22;3236;51.022;6.818;2023-04-15T08:22:54;12.80;99.90
6407;DHT22;3236;51.022;6.818;2023-04-15T08:25:21;12.90;99.90
6407;DHT22;3236;51.022;6.818;2023-04-15T08:27:48;12.60;99.90
6407;DHT22;3236;51.022;6.818;2023-04-15T08:30:15;13.20;99.90
6407;DHT22;3236;51.022;6.818;2023-04-15T08:32:45;12.90;99.90
6407;DHT22;3236;51.022;6.818;2023-04-15T08:35:12;13.30;99.90
6407;DHT22;3236;51.022;6.818;2023-04-15T08:40:10;13.20;99.90
6407;DHT22;3236;51.022;6.818;2023-04-15T08:42:43;13.20;99.90
6407;DHT22;3236;51.022;6.818;2023-04-15T08:45:10;13.20;99.90
6407;DHT22;3236;51.022;6.818;2023-04-15T08:47:38;13.10;99.90
6407;DHT22;3236;51.022;6.818;2023-04-15T08:50:08;13.10;99.90
6407;DHT22;3236;51.022;6.818;2023-04-15T08:52:36;13.30;99.90
6407;DHT22;3236;51.022;6.818;2023-04-15T08:55:10;13.10;99.90
6407;DHT22;3236;51.022;6.818;2023-04-15T08:57:47;13.10;99.90
6407;DHT22;3236;51.022;6.818;2023-04-15T09:05:14;13.30;99.90
6407;DHT22;3236;51.022;6.818;2023-04-15T09:07:49;13.30;99.90
6407;DHT22;3236;51.022;6.818;2023-04-15T09:12:52;13.50;99.90
6407;DHT22;3236;51.022;6.818;2023-04-15T09:15:25;13.40;99.90
6407;DHT22;3236;51.022;6.818;2023-04-15T09:17:54;13.40;99.90
6407;DHT22;3236;51.022;6.818;2023-04-15T09:20:22;13.70;99.90
6407;DHT22;3236;51.022;6.818;2023-04-15T09:22:49;13.70;99.90
6407;DHT22;3236;51.022;6.818;2023-04-15T09:25:30;13.80;99.90
6407;DHT22;3236;51.022;6.818;2023-04-15T09:27:59;14.00;99.90
6407;DHT22;3236;51.022;6.818;2023-04-15T09:32:59;13.60;99.90
6407;DHT22;3236;51.022;6.818;2023-04-15T09:35:29;13.60;99.90
6407;DHT22;3236;51.022;6.818;2023-04-15T09:38:02;13.80;99.90
6407;DHT22;3236;51.022;6.818;2023-04-15T09:43:00;13.50;99.90
6407;DHT22;3236;51.022;6.818;2023-04-15T09:45:28;13.80;99.90
6407;DHT22;3236;51.022;6.818;2023-04-15T09:47:56;13.80;99.90
6407;DHT22;3236;51.022;6.818;2023-04-15T09:53:09;14.00;99.90
6407;DHT22;3236;51.022;6.818;2023-04-15T09:55:38;14.10;99.90
6407;DHT22;3236;51.022;6.818;2023-04-15T09:58:08;14.80;99.90
6407;DHT22;3236;51.022;6.818;2023-04-15T10:03:05;14.50;99.90
6407;DHT22;3236;51.022;6.818;2023-04-15T10:08:02;14.60;99.90
6407;DHT22;3236;51.022;6.818;2023-04-15T10:10:29;14.60;99.80
6407;DHT22;3236;51.022;6.818;2023-04-15T10:12:59;14.60;99.10
6407;DHT22;3236;51.022;6.818;2023-04-15T10:15:27;14.70;98.80
6407;DHT22;3236;51.022;6.818;2023-04-15T10:17:56;14.60;98.90
6407;DHT22;3236;51.022;6.818;2023-04-15T10:20:24;14.60;99.50
6407;DHT22;3236;51.022;6.818;2023-04-15T10:22:53;14.40;99.90
6407;DHT22;3236;51.022;6.818;2023-04-15T10:25:20;14.40;99.90
6407;DHT22;3236;51.022;6.818;2023-04-15T10:30:19;14.70;99.90
6407;DHT22;3236;51.022;6.818;2023-04-15T10:37:54;14.90;98.70
6407;DHT22;3236;51.022;6.818;2023-04-15T10:40:28;15.10;99.10
6407;DHT22;3236;51.022;6.818;2023-04-15T10:42:58;15.10;99.10
6407;DHT22;3236;51.022;6.818;2023-04-15T10:45:32;15.10;99.10
6407;DHT22;3236;51.022;6.818;2023-04-15T10:48:03;15.80;98.80
6407;DHT22;3236;51.022;6.818;2023-04-15T10:50:33;15.60;97.70
6407;DHT22;3236;51.022;6.818;2023-04-15T10:53:02;15.60;97.60
6407;DHT22;3236;51.022;6.818;2023-04-15T10:55:32;15.40;97.40
6407;DHT22;3236;51.022;6.818;2023-04-15T11:00:29;14.70;98.70
6407;DHT22;3236;51.022;6.818;2023-04-15T11:02:58;14.90;98.70
6407;DHT22;3236;51.022;6.818;2023-04-15T11:05:50;15.00;98.40
6407;DHT22;3236;51.022;6.818;2023-04-15T11:08:17;15.30;98.30
6407;DHT22;3236;51.022;6.818;2023-04-15T11:10:54;15.30;97.60
6407;DHT22;3236;51.022;6.818;2023-04-15T11:13:25;15.00;97.80
6407;DHT22;3236;51.022;6.818;2023-04-15T11:15:59;15.60;98.00
6407;DHT22;3236;51.022;6.818;2023-04-15T11:18:29;15.40;97.60
6407;DHT22;3236;51.022;6.818;2023-04-15T11:20:59;15.30;98.00
6407;DHT22;3236;51.022;6.818;2023-04-15T11:23:30;15.40;97.90
6407;DHT22;3236;51.022;6.818;2023-04-15T11:25:58;15.30;97.80
6407;DHT22;3236;51.022;6.818;2023-04-15T11:28:28;15.10;97.90
6407;DHT22;3236;51.022;6.818;2023-04-15T11:30:56;14.90;98.40
6407;DHT22;3236;51.022;6.818;2023-04-15T11:33:24;15.10;99.30
6407;DHT22;3236;51.022;6.818;2023-04-15T11:40:49;14.40;99.90
6407;DHT22;3236;51.022;6.818;2023-04-15T11:43:18;14.40;99.90
6407;DHT22;3236;51.022;6.818;2023-04-15T11:45:49;14.60;99.90
6407;DHT22;3236;51.022;6.818;2023-04-15T11:48:16;14.60;99.90
6407;DHT22;3236;51.022;6.818;2023-04-15T11:50:45;14.70;99.90
6407;DHT22;3236;51.022;6.818;2023-04-15T11:53:15;14.70;99.90
6407;DHT22;3236;51.022;6.818;2023-04-15T11:55:43;14.50;99.90
6407;DHT22;3236;51.022;6.818;2023-04-15T11:58:12;13.90;99.90
6407;DHT22;3236;51.022;6.818;2023-04-15T12:00:40;14.20;99.90
6407;DHT22;3236;51.022;6.818;2023-04-15T12:03:16;14.10;99.90
6407;DHT22;3236;51.022;6.818;2023-04-15T12:06:12;14.00;99.90
6407;DHT22;3236;51.022;6.818;2023-04-15T12:08:55;14.30;99.90
6407;DHT22;3236;51.022;6.818;2023-04-15T12:11:31;14.30;99.90
6407;DHT22;3236;51.022;6.818;2023-04-15T12:14:06;14.00;99.90
6407;DHT22;3236;51.022;6.818;2023-04-15T12:16:35;13.90;99.90
6407;DHT22;3236;51.022;6.818;2023-04-15T12:19:05;13.90;99.90
6407;DHT22;3236;51.022;6.818;2023-04-15T12:21:40;14.10;99.90
6407;DHT22;3236;51.022;6.818;2023-04-15T12:24:10;13.90;99.90
6407;DHT22;3236;51.022;6.818;2023-04-15T12:26:45;13.70;99.90
6407;DHT22;3236;51.022;6.818;2023-04-15T12:29:13;13.60;99.90
6407;DHT22;3236;51.022;6.818;2023-04-15T12:31:48;13.40;99.90
6407;DHT22;3236;51.022;6.818;2023-04-15T12:34:17;13.30;99.90
6407;DHT22;3236;51.022;6.818;2023-04-15T12:36:44;13.30;99.90
6407;DHT22;3236;51.022;6.818;2023-04-15T12:41:42;13.00;99.90
6407;DHT22;3236;51.022;6.818;2023-04-15T12:44:10;13.30;99.90
6407;DHT22;3236;51.022;6.818;2023-04-15T12:46:37;13.40;99.90
6407;DHT22;3236;51.022;6.818;2023-04-15T12:49:04;13.40;99.90
6407;DHT22;3236;51.022;6.818;2023-04-15T12:51:34;13.30;99.90
6407;DHT22;3236;51.022;6.818;2023-04-15T12:54:01;13.10;99.90
6407;DHT22;3236;51.022;6.818;2023-04-15T12:56:30;11.80;99.90
6407;DHT22;3236;51.022;6.818;2023-04-15T12:58:57;12.60;99.90
6407;DHT22;3236;51.022;6.818;2023-04-15T13:01:25;12.90;99.90
6407;DHT22;3236;51.022;6.818;2023-04-15T13:03:55;12.50;99.90
6407;DHT22;3236;51.022;6.818;2023-04-15T13:06:22;12.50;99.90
6407;DHT22;3236;51.022;6.818;2023-04-15T13:08:50;12.60;99.90
6407;DHT22;3236;51.022;6.818;2023-04-15T13:11:20;12.60;99.90
6407;DHT22;3236;51.022;6.818;2023-04-15T13:13:48;12.50;99.90
6407;DHT22;3236;51.022;6.818;2023-04-15T13:16:16;12.50;99.90
6407;DHT22;3236;51.022;6.818;2023-04-15T13:18:43;11.60;99.90
6407;DHT22;3236;51.022;6.818;2023-04-15T13:21:11;12.00;99.90
6407;DHT22;3236;51.022;6.818;2023-04-15T13:23:38;12.40;99.90
6407;DHT22;3236;51.022;6.818;2023-04-15T13:26:05;12.40;99.90
6407;DHT22;3236;51.022;6.818;2023-04-15T13:28:33;12.60;99.90
6407;DHT22;3236;51.022;6.818;2023-04-15T13:31:04;13.00;99.90
6407;DHT22;3236;51.022;6.818;2023-04-15T13:33:37;12.00;99.90
6407;DHT22;3236;51.022;6.818;2023-04-15T13:36:05;12.20;99.90
6407;DHT22;3236;51.022;6.818;2023-04-15T13:41:02;12.00;99.90
6407;DHT22;3236;51.022;6.818;2023-04-15T13:45:58;12.50;99.90
6407;DHT22;3236;51.022;6.818;2023-04-15T13:53:23;11.80;99.90
6407;DHT22;3236;51.022;6.818;2023-04-15T13:55:50;11.90;99.90
6407;DHT22;3236;51.022;6.818;2023-04-15T13:58:17;12.00;99.90
6407;DHT22;3236;51.022;6.818;2023-04-15T14:03:12;12.00;99.90
6407;DHT22;3236;51.022;6.818;2023-04-15T14:10:47;12.40;99.90
6407;DHT22;3236;51.022;6.818;2023-04-15T14:23:10;12.20;99.90
6407;DHT22;3236;51.022;6.818;2023-04-15T14:25:37;11.90;99.90
6407;DHT22;3236;51.022;6.818;2023-04-15T14:28:05;11.90;99.90
6407;DHT22;3236;51.022;6.818;2023-04-15T14:30:32;11.80;99.90
6407;DHT22;3236;51.022;6.818;2023-04-15T14:33:02;11.80;99.90
6407;DHT22;3236;51.022;6.818;2023-04-15T14:35:30;11.80;99.90
6407;DHT22;3236;51.022;6.818;2023-04-15T14:42:53;11.90;99.90
6407;DHT22;3236;51.022;6.818;2023-04-15T14:45:20;12.20;99.90
6407;DHT22;3236;51.022;6.818;2023-04-15T14:47:49;11.90;99.90
6407;DHT22;3236;51.022;6.818;2023-04-15T14:50:17;12.30;99.90
6407;DHT22;3236;51.022;6.818;2023-04-15T14:52:44;12.50;99.90
6407;DHT22;3236;51.022;6.818;2023-04-15T14:55:13;12.30;99.90
6407;DHT22;3236;51.022;6.818;2023-04-15T14:57:43;12.60;99.90
6407;DHT22;3236;51.022;6.818;2023-04-15T15:00:11;12.40;99.90
6407;DHT22;3236;51.022;6.818;2023-04-15T15:05:08;12.50;99.90
6407;DHT22;3236;51.022;6.818;2023-04-15T15:07:37;12.60;99.90
6407;DHT22;3236;51.022;6.818;2023-04-15T15:10:06;12.50;99.90
6407;DHT22;3236;51.022;6.818;2023-04-15T15:12:34;12.10;99.90
6407;DHT22;3236;51.022;6.818;2023-04-15T15:15:02;12.00;99.90
6407;DHT22;3236;51.022;6.818;2023-04-15T15:22:24;12.40;99.90
6407;DHT22;3236;51.022;6.818;2023-04-15T15:24:51;12.30;99.90
6407;DHT22;3236;51.022;6.818;2023-04-15T15:29:48;11.90;99.90
6407;DHT22;3236;51.022;6.818;2023-04-15T15:34:45;12.00;99.90
6407;DHT22;3236;51.022;6.818;2023-04-15T15:39:39;11.80;99.90
6407;DHT22;3236;51.022;6.818;2023-04-15T15:42:07;11.80;99.90
6407;DHT22;3236;51.022;6.818;2023-04-15T15:44:35;11.50;99.90
6407;DHT22;3236;51.022;6.818;2023-04-15T15:47:04;11.50;99.90
6407;DHT22;3236;51.022;6.818;2023-04-15T15:49:31;11.30;99.90
6407;DHT22;3236;51.022;6.818;2023-04-15T15:54:32;11.40;99.90
6407;DHT22;3236;51.022;6.818;2023-04-15T15:57:02;11.20;99.90
6407;DHT22;3236;51.022;6.818;2023-04-15T15:59:30;10.80;99.90
6407;DHT22;3236;51.022;6.818;2023-04-15T16:06:53;11.10;99.90
6407;DHT22;3236;51.022;6.818;2023-04-15T16:09:30;11.00;99.90
6407;DHT22;3236;51.022;6.818;2023-04-15T16:11:58;10.50;99.90
6407;DHT22;3236;51.022;6.818;2023-04-15T16:14:26;10.80;99.90
6407;DHT22;3236;51.022;6.818;2023-04-15T16:16:53;10.70;99.90
6407;DHT22;3236;51.022;6.818;2023-04-15T16:19:20;10.70;99.90
6407;DHT22;3236;51.022;6.818;2023-04-15T16:29:19;10.90;99.90
6407;DHT22;3236;51.022;6.818;2023-04-15T16:31:46;10.50;99.90
6407;DHT22;3236;51.022;6.818;2023-04-15T16:36:43;10.50;99.90
6407;DHT22;3236;51.022;6.818;2023-04-15T16:39:11;10.40;99.90
6407;DHT22;3236;51.022;6.818;2023-04-15T16:56:34;10.40;99.90
6407;DHT22;3236;51.022;6.818;2023-04-15T16:59:02;10.20;99.90
6407;DHT22;3236;51.022;6.818;2023-04-15T17:01:32;10.30;99.90
6407;DHT22;3236;51.022;6.818;2023-04-15T17:04:06;10.30;99.90
6407;DHT22;3236;51.022;6.818;2023-04-15T17:06:38;10.20;99.90
6407;DHT22;3236;51.022;6.818;2023-04-15T17:09:06;10.20;99.90
6407;DHT22;3236;51.022;6.818;2023-04-15T17:11:35;10.20;99.90
6407;DHT22;3236;51.022;6.818;2023-04-15T17:14:03;10.10;99.90
6407;DHT22;3236;51.022;6.818;2023-04-15T17:16:30;10.20;99.90
6407;DHT22;3236;51.022;6.818;2023-04-15T17:21:25;10.20;99.90
6407;DHT22;3236;51.022;6.818;2023-04-15T17:23:52;10.10;99.90
6407;DHT22;3236;51.022;6.818;2023-04-15T17:28:48;10.30;99.90
6407;DHT22;3236;51.022;6.818;2023-04-15T17:31:15;10.20;99.90
6407;DHT22;3236;51.022;6.818;2023-04-15T17:33:43;10.30;99.90
6407;DHT22;3236;51.022;6.818;2023-04-15T17:36:10;10.20;99.90
6407;DHT22;3236;51.022;6.818;2023-04-15T17:38:37;10.20;99.90
6407;DHT22;3236;51.022;6.818;2023-04-15T17:41:06;10.20;99.90
6407;DHT22;3236;51.022;6.818;2023-04-15T17:43:39;10.20;99.90
6407;DHT22;3236;51.022;6.818;2023-04-15T17:46:07;10.20;99.90
6407;DHT22;3236;51.022;6.818;2023-04-15T17:48:39;10.20;99.90
6407;DHT22;3236;51.022;6.818;2023-04-15T17:56:01;10.10;99.90
6407;DHT22;3236;51.022;6.818;2023-04-15T17:58:28;10.10;99.90
6407;DHT22;3236;51.022;6.818;2023-04-15T18:00:55;10.00;99.90
6407;DHT22;3236;51.022;6.818;2023-04-15T18:03:24;10.00;99.90
6407;DHT22;3236;51.022;6.818;2023-04-15T18:05:51;10.00;99.90
6407;DHT22;3236;51.022;6.818;2023-04-15T18:08:19;10.10;99.90
6407;DHT22;3236;51.022;6.818;2023-04-15T18:10:46;10.00;99.90
6407;DHT22;3236;51.022;6.818;2023-04-15T18:13:13;9.90;99.90
6407;DHT22;3236;51.022;6.818;2023-04-15T18:15:40;10.00;99.90
6407;DHT22;3236;51.022;6.818;2023-04-15T18:18:07;9.90;99.90
6407;DHT22;3236;51.022;6.818;2023-04-15T18:20:35;9.90;99.90
6407;DHT22;3236;51.022;6.818;2023-04-15T18:23:02;9.60;99.90
6407;DHT22;3236;51.022;6.818;2023-04-15T18:25:30;10.10;99.90
6407;DHT22;3236;51.022;6.818;2023-04-15T18:27:58;9.90;99.90
6407;DHT22;3236;51.022;6.818;2023-04-15T18:30:25;9.80;99.90
6407;DHT22;3236;51.022;6.818;2023-04-15T18:32:52;9.80;99.90
6407;DHT22;3236;51.022;6.818;2023-04-15T18:35:19;9.60;99.90